Time,TemperatureF,DewpointF,PressureIn,WindDirection,WindDirectionDegrees,WindSpeedMPH,WindSpeedGustMPH,Humidity,HourlyPrecipIn,Conditions,Clouds,dailyrainin,SolarRadiationWatts/m^2,SoftwareType,DateUTC
2013-08-12 00:00:00,73.2,55.4,-100.00,NNE,28,4.5,5.6,53,0.00,,,-99.99,1.0,HOBO +U30 +Weather +,2013-08-12 06:00:00,
2013-08-12 00:05:00,73.0,55.6,-100.00,NNE,22,4.0,5.6,54,0.00,,,-99.99,1.0,HOBO +U30 +Weather +,2013-08-12 06:05:00,
2013-08-12 00:10:00,72.8,55.7,-100.00,NNE,14,4.0,5.1,54,0.00,,,-99.99,1.0,HOBO +U30 +Weather +,2013-08-12 06:10:00,
2013-08-12 00:15:00,73.3,55.8,-100.00,North,10,2.9,4.5,54,0.00,,,-99.99,1.0,HOBO +U30 +Weather +,2013-08-12 06:15:00,
2013-08-12 00:20:00,71.8,55.2,-100.00,NE,52,2.2,4.0,55,0.00,,,-99.99,1.0,HOBO +U30 +Weather +,2013-08-12 06:20:00,
2013-08-12 00:25:00,71.5,55.5,-100.00,East,91,1.1,2.9,57,0.00,,,-99.99,1.0,HOBO +U30 +Weather +,2013-08-12 06:25:00,
2013-08-12 00:30:00,71.5,55.5,-100.00,ESE,110,0.7,2.9,57,0.00,,,-99.99,1.0,HOBO +U30 +Weather +,2013-08-12 06:30:00,
2013-08-12 00:35:00,71.1,55.4,-100.00,SSE,161,2.2,4.0,57,0.00,,,-99.99,1.0,HOBO +U30 +Weather +,2013-08-12 06:35:00,
2013-08-12 00:45:00,70.9,55.5,-100.00,SSE,160,1.8,3.4,58,0.00,,,-99.99,1.0,HOBO +U30 +Weather +,2013-08-12 06:45:00,
2013-08-12 00:50:00,70.7,55.1,-100.00,SSE,160,2.2,4.5,57,0.00,,,-99.99,1.0,HOBO +U30 +Weather +,2013-08-12 06:50:00,
2013-08-12 00:55:00,71.0,54.2,-100.00,SSE,156,1.1,4.0,55,0.00,,,-99.99,1.0,HOBO +U30 +Weather +,2013-08-12 06:55:00,
2013-08-12 01:00:00,70.2,54.4,-100.00,SE,128,0.0,1.1,57,0.00,,,-99.99,1.0,HOBO +U30 +Weather +,2013-08-12 07:00:00,
2013-08-12 01:05:00,70.2,54.8,-100.00,SE,132,0.0,1.8,58,0.00,,,-99.99,1.0,HOBO +U30 +Weather +,2013-08-12 07:05:00,
2013-08-12 01:10:00,70.2,55.5,-100.00,WSW,247,1.1,3.4,59,0.00,,,-99.99,1.0,HOBO +U30 +Weather +,2013-08-12 07:10:00,
2013-08-12 01:15:00,70.1,55.2,-100.00,West,261,0.0,1.8,59,0.00,,,-99.99,1.0,HOBO +U30 +Weather +,2013-08-12 07:15:00,
2013-08-12 01:20:00,70.2,53.7,-100.00,West,261,0.0,1.8,55,0.00,,,-99.99,1.0,HOBO +U30 +Weather +,2013-08-12 07:20:00,
2013-08-12 01:25:00,70.2,54.5,-100.00,WSW,257,0.7,2.9,57,0.00,,,-99.99,1.0,HOBO +U30 +Weather +,2013-08-12 07:25:00,
2013-08-12 01:30:00,70.0,54.5,-100.00,SW,216,0.7,2.2,57,0.00,,,-99.99,1.0,HOBO +U30 +Weather +,2013-08-12 07:30:00,
2013-08-12 01:35:00,69.8,54.7,-100.00,SW,216,0.0,1.8,58,0.00,,,-99.99,1.0,HOBO +U30 +Weather +,2013-08-12 07:35:00,
2013-08-12 01:40:00,69.3,54.0,-100.00,SW,216,0.0,1.8,58,0.00,,,-99.99,1.0,HOBO +U30 +Weather +,2013-08-12 07:40:00,
2013-08-12 01:45:00,69.3,53.0,-100.00,SW,218,0.7,2.2,56,0.00,,,-99.99,1.0,HOBO +U30 +Weather +,2013-08-12 07:45:00,
2013-08-12 01:50:00,69.3,52.7,-100.00,SW,218,1.1,2.9,55,0.00,,,-99.99,1.0,HOBO +U30 +Weather +,2013-08-12 07:50:00,
2013-08-12 01:55:00,69.0,52.4,-100.00,SW,215,2.2,4.0,55,0.00,,,-99.99,1.0,HOBO +U30 +Weather +,2013-08-12 07:55:00,
2013-08-12 02:00:00,68.5,51.5,-100.00,SSW,208,4.0,6.3,54,0.00,,,-99.99,1.0,HOBO +U30 +Weather +,2013-08-12 08:00:00,
2013-08-12 02:05:00,68.2,52.0,-100.00,SSW,212,4.0,6.3,56,0.00,,,-99.99,1.0,HOBO +U30 +Weather +,2013-08-12 08:05:00,
2013-08-12 02:10:00,68.0,51.7,-100.00,SW,216,5.6,7.8,55,0.00,,,-99.99,1.0,HOBO +U30 +Weather +,2013-08-12 08:10:00,
2013-08-12 02:15:00,67.7,51.3,-100.00,SSW,212,5.1,8.5,55,0.00,,,-99.99,1.0,HOBO +U30 +Weather +,2013-08-12 08:15:00,
2013-08-12 02:20:00,67.1,51.4,-100.00,SSW,199,3.4,6.3,57,0.00,,,-99.99,1.0,HOBO +U30 +Weather +,2013-08-12 08:20:00,
2013-08-12 02:25:00,66.8,51.4,-100.00,SSW,204,1.1,4.0,57,0.00,,,-99.99,1.0,HOBO +U30 +Weather +,2013-08-12 08:25:00,
2013-08-12 02:30:00,66.2,51.6,-100.00,SSW,202,0.7,2.2,59,0.00,,,-99.99,1.0,HOBO +U30 +Weather +,2013-08-12 08:30:00,
2013-08-12 02:43:00,65.7,51.4,-100.00,South,173,2.9,4.5,59,0.00,,,-99.99,1.0,HOBO +U30 +Weather +,2013-08-12 08:43:00,
2013-08-12 02:45:00,66.5,51.0,-100.00,SSW,211,3.4,5.1,57,0.00,,,-99.99,1.0,HOBO +U30 +Weather +,2013-08-12 08:45:00,
2013-08-12 02:50:00,66.3,50.8,-100.00,SSW,209,4.0,5.6,57,0.00,,,-99.99,1.0,HOBO +U30 +Weather +,2013-08-12 08:50:00,
2013-08-12 02:55:00,66.2,51.0,-100.00,SSW,202,4.5,6.3,57,0.00,,,-99.99,1.0,HOBO +U30 +Weather +,2013-08-12 08:55:00,
2013-08-12 03:00:00,65.9,50.7,-100.00,SSW,198,4.5,5.6,57,0.00,,,-99.99,1.0,HOBO +U30 +Weather +,2013-08-12 09:00:00,
2013-08-12 03:05:00,65.8,50.6,-100.00,SSW,201,1.8,4.5,57,0.00,,,-99.99,1.0,HOBO +U30 +Weather +,2013-08-12 09:05:00,
2013-08-12 03:10:00,65.8,50.3,-100.00,SSW,209,1.8,3.4,57,0.00,,,-99.99,1.0,HOBO +U30 +Weather +,2013-08-12 09:10:00,
2013-08-12 03:15:00,65.5,50.1,-100.00,SSW,205,3.4,5.6,57,0.00,,,-99.99,1.0,HOBO +U30 +Weather +,2013-08-12 09:15:00,
2013-08-12 03:20:00,65.1,50.1,-100.00,SSW,195,2.9,4.5,58,0.00,,,-99.99,1.0,HOBO +U30 +Weather +,2013-08-12 09:20:00,
2013-08-12 03:25:00,65.0,50.3,-100.00,SSW,204,3.4,5.6,59,0.00,,,-99.99,1.0,HOBO +U30 +Weather +,2013-08-12 09:25:00,
2013-08-12 03:30:00,64.7,50.2,-100.00,SSW,209,4.5,6.7,59,0.00,,,-99.99,1.0,HOBO +U30 +Weather +,2013-08-12 09:30:00,
2013-08-12 03:35:00,64.8,50.1,-100.00,SW,218,2.9,5.1,59,0.00,,,-99.99,1.0,HOBO +U30 +Weather +,2013-08-12 09:35:00,
2013-08-12 03:40:00,64.9,50.4,-100.00,WSW,240,1.1,3.4,59,0.00,,,-99.99,1.0,HOBO +U30 +Weather +,2013-08-12 09:40:00,
2013-08-12 03:45:00,64.5,50.7,-100.00,WSW,240,0.0,2.2,60,0.00,,,-99.99,1.0,HOBO +U30 +Weather +,2013-08-12 09:45:00,
2013-08-12 03:50:00,64.0,50.9,-100.00,WSW,240,0.7,2.2,62,0.00,,,-99.99,1.0,HOBO +U30 +Weather +,2013-08-12 09:50:00,
2013-08-12 03:55:00,64.2,50.6,-100.00,SW,234,1.8,3.4,61,0.00,,,-99.99,1.0,HOBO +U30 +Weather +,2013-08-12 09:55:00,
2013-08-12 04:00:00,63.7,50.3,-100.00,SSW,202,3.4,5.6,61,0.00,,,-99.99,1.0,HOBO +U30 +Weather +,2013-08-12 10:00:00,
2013-08-12 04:05:00,63.0,50.2,-100.00,South,190,2.9,4.5,62,0.00,,,-99.99,1.0,HOBO +U30 +Weather +,2013-08-12 10:05:00,
2013-08-12 04:10:00,62.4,50.0,-100.00,South,184,4.0,5.6,63,0.00,,,-99.99,1.0,HOBO +U30 +Weather +,2013-08-12 10:10:00,
2013-08-12 04:15:00,62.2,49.4,-100.00,SSW,195,4.5,6.3,63,0.00,,,-99.99,1.0,HOBO +U30 +Weather +,2013-08-12 10:15:00,
2013-08-12 04:20:00,62.2,49.3,-100.00,SSW,204,3.4,5.6,62,0.00,,,-99.99,1.0,HOBO +U30 +Weather +,2013-08-12 10:20:00,
2013-08-12 04:25:00,62.5,49.2,-100.00,SSW,211,3.4,5.1,61,0.00,,,-99.99,1.0,HOBO +U30 +Weather +,2013-08-12 10:25:00,
2013-08-12 04:30:00,62.3,49.0,-100.00,SSW,208,2.2,5.1,61,0.00,,,-99.99,1.0,HOBO +U30 +Weather +,2013-08-12 10:30:00,
2013-08-12 04:40:00,62.4,49.0,-100.00,SSW,201,1.1,2.9,61,0.00,,,-99.99,1.0,HOBO +U30 +Weather +,2013-08-12 10:40:00,
2013-08-12 04:45:00,62.3,49.2,-100.00,SSW,208,0.7,2.2,62,0.00,,,-99.99,1.0,HOBO +U30 +Weather +,2013-08-12 10:45:00,
2013-08-12 04:50:00,62.4,49.7,-100.00,SW,225,0.7,3.4,63,0.00,,,-99.99,1.0,HOBO +U30 +Weather +,2013-08-12 10:50:00,
2013-08-12 04:55:00,62.1,49.4,-100.00,SW,229,1.1,3.4,63,0.00,,,-99.99,1.0,HOBO +U30 +Weather +,2013-08-12 10:55:00,
2013-08-12 05:00:00,61.8,49.2,-100.00,SSW,204,2.2,4.0,63,0.00,,,-99.99,1.0,HOBO +U30 +Weather +,2013-08-12 11:00:00,
2013-08-12 05:05:00,62.3,49.3,-100.00,SW,227,2.2,4.0,62,0.00,,,-99.99,1.0,HOBO +U30 +Weather +,2013-08-12 11:05:00,
2013-08-12 05:10:00,62.2,49.3,-100.00,SW,230,2.2,4.5,62,0.00,,,-99.99,1.0,HOBO +U30 +Weather +,2013-08-12 11:10:00,
2013-08-12 05:15:00,61.5,49.3,-100.00,SSW,206,2.9,5.6,64,0.00,,,-99.99,1.0,HOBO +U30 +Weather +,2013-08-12 11:15:00,
2013-08-12 05:20:00,61.3,49.3,-100.00,SW,219,2.9,5.1,64,0.00,,,-99.99,1.0,HOBO +U30 +Weather +,2013-08-12 11:20:00,
2013-08-12 05:25:00,61.6,49.9,-100.00,WSW,246,4.0,6.3,65,0.00,,,-99.99,1.0,HOBO +U30 +Weather +,2013-08-12 11:25:00,
2013-08-12 05:30:00,61.5,50.1,-100.00,WSW,247,4.0,6.3,66,0.00,,,-99.99,1.0,HOBO +U30 +Weather +,2013-08-12 11:30:00,
2013-08-12 05:35:00,61.7,49.7,-100.00,WSW,244,2.9,6.3,64,0.00,,,-99.99,1.0,HOBO +U30 +Weather +,2013-08-12 11:35:00,
2013-08-12 05:40:00,61.1,49.5,-100.00,SSW,211,2.9,5.6,65,0.00,,,-99.99,1.0,HOBO +U30 +Weather +,2013-08-12 11:40:00,
2013-08-12 05:45:00,60.9,49.9,-100.00,SW,216,2.2,4.5,66,0.00,,,-99.99,1.0,HOBO +U30 +Weather +,2013-08-12 11:45:00,
2013-08-12 05:50:00,60.8,49.8,-100.00,SW,230,1.8,4.5,67,0.00,,,-99.99,1.0,HOBO +U30 +Weather +,2013-08-12 11:50:00,
2013-08-12 05:55:00,60.2,49.8,-100.00,SSW,201,2.2,5.6,68,0.00,,,-99.99,1.0,HOBO +U30 +Weather +,2013-08-12 11:55:00,
2013-08-12 06:00:00,60.0,49.3,-100.00,SSW,204,3.4,5.6,67,0.00,,,-99.99,1.0,HOBO +U30 +Weather +,2013-08-12 12:00:00,
2013-08-12 06:05:00,59.4,48.9,-100.00,SSW,199,4.0,5.6,68,0.00,,,-99.99,1.0,HOBO +U30 +Weather +,2013-08-12 12:05:00,
2013-08-12 06:10:00,58.7,48.4,-100.00,SSW,195,4.5,6.3,68,0.00,,,-99.99,2.0,HOBO +U30 +Weather +,2013-08-12 12:10:00,
2013-08-12 06:15:00,58.5,48.2,-100.00,South,188,4.0,5.6,68,0.00,,,-99.99,4.0,HOBO +U30 +Weather +,2013-08-12 12:15:00,
2013-08-12 06:20:00,58.5,48.1,-100.00,SSW,194,3.4,5.6,68,0.00,,,-99.99,7.0,HOBO +U30 +Weather +,2013-08-12 12:20:00,
2013-08-12 06:25:00,58.7,48.2,-100.00,SSW,204,3.4,4.5,68,0.00,,,-99.99,11.0,HOBO +U30 +Weather +,2013-08-12 12:25:00,
2013-08-12 06:38:00,58.6,48.0,-100.00,SSW,205,4.5,6.3,67,0.00,,,-99.99,14.0,HOBO +U30 +Weather +,2013-08-12 12:38:00,
2013-08-12 06:40:00,58.3,48.4,-100.00,SSW,194,4.0,6.3,69,0.00,,,-99.99,39.0,HOBO +U30 +Weather +,2013-08-12 12:40:00,
2013-08-12 06:45:00,58.5,48.5,-100.00,SSW,204,3.4,5.6,69,0.00,,,-99.99,51.0,HOBO +U30 +Weather +,2013-08-12 12:45:00,
2013-08-12 06:50:00,58.4,48.5,-100.00,SSW,204,4.0,5.6,69,0.00,,,-99.99,63.0,HOBO +U30 +Weather +,2013-08-12 12:50:00,
2013-08-12 06:55:00,59.0,48.8,-100.00,SSW,204,2.9,5.1,68,0.00,,,-99.99,77.0,HOBO +U30 +Weather +,2013-08-12 12:55:00,
2013-08-12 07:00:00,59.7,49.1,-100.00,SSW,209,1.8,4.0,67,0.00,,,-99.99,91.0,HOBO +U30 +Weather +,2013-08-12 13:00:00,
2013-08-12 07:05:00,60.2,49.3,-100.00,SW,219,1.8,4.5,67,0.00,,,-99.99,103.0,HOBO +U30 +Weather +,2013-08-12 13:05:00,
2013-08-12 07:10:00,60.5,49.3,-100.00,SW,220,2.2,4.0,66,0.00,,,-99.99,114.0,HOBO +U30 +Weather +,2013-08-12 13:10:00,
2013-08-12 07:15:00,60.5,49.1,-100.00,SSW,198,3.4,7.4,66,0.00,,,-99.99,126.0,HOBO +U30 +Weather +,2013-08-12 13:15:00,
2013-08-12 07:20:00,60.8,48.9,-100.00,SSW,206,2.9,6.3,64,0.00,,,-99.99,138.0,HOBO +U30 +Weather +,2013-08-12 13:20:00,
2013-08-12 07:25:00,60.9,49.3,-100.00,SSW,205,2.9,6.7,65,0.00,,,-99.99,151.0,HOBO +U30 +Weather +,2013-08-12 13:25:00,
2013-08-12 07:37:00,61.1,49.4,-100.00,SSW,192,3.4,5.6,65,0.00,,,-99.99,163.0,HOBO +U30 +Weather +,2013-08-12 13:37:00,
2013-08-12 07:40:00,61.7,49.5,-100.00,SSW,192,2.9,5.1,64,0.00,,,-99.99,189.0,HOBO +U30 +Weather +,2013-08-12 13:40:00,
2013-08-12 07:45:00,61.9,49.6,-100.00,South,174,3.4,5.1,63,0.00,,,-99.99,202.0,HOBO +U30 +Weather +,2013-08-12 13:45:00,
2013-08-12 07:50:00,63.0,50.0,-100.00,South,178,2.2,4.0,62,0.00,,,-99.99,214.0,HOBO +U30 +Weather +,2013-08-12 13:50:00,
2013-08-12 07:55:00,62.7,49.9,-100.00,South,191,4.0,6.3,62,0.00,,,-99.99,227.0,HOBO +U30 +Weather +,2013-08-12 13:55:00,
2013-08-12 08:00:00,63.2,50.3,-100.00,South,191,2.9,5.6,62,0.00,,,-99.99,241.0,HOBO +U30 +Weather +,2013-08-12 14:00:00,
2013-08-12 08:05:00,64.0,50.5,-100.00,SSW,204,1.8,5.1,61,0.00,,,-99.99,253.0,HOBO +U30 +Weather +,2013-08-12 14:05:00,
2013-08-12 08:10:00,64.0,49.4,-100.00,SSW,204,2.9,5.6,59,0.00,,,-99.99,266.0,HOBO +U30 +Weather +,2013-08-12 14:10:00,
2013-08-12 08:15:00,63.8,49.7,-100.00,South,190,4.0,6.7,59,0.00,,,-99.99,278.0,HOBO +U30 +Weather +,2013-08-12 14:15:00,
2013-08-12 08:20:00,64.0,50.0,-100.00,SSE,166,3.4,5.1,60,0.00,,,-99.99,292.0,HOBO +U30 +Weather +,2013-08-12 14:20:00,
2013-08-12 08:25:00,64.5,49.9,-100.00,South,175,3.4,5.6,59,0.00,,,-99.99,303.0,HOBO +U30 +Weather +,2013-08-12 14:25:00,
2013-08-12 08:35:00,64.4,50.0,-100.00,South,180,3.4,5.6,59,0.00,,,-99.99,317.0,HOBO +U30 +Weather +,2013-08-12 14:35:00,
2013-08-12 08:40:00,65.0,50.2,-100.00,SSE,163,4.0,6.3,58,0.00,,,-99.99,343.0,HOBO +U30 +Weather +,2013-08-12 14:40:00,
2013-08-12 08:45:00,66.0,50.1,-100.00,South,170,2.9,7.4,56,0.00,,,-99.99,356.0,HOBO +U30 +Weather +,2013-08-12 14:45:00,
2013-08-12 08:50:00,66.2,49.4,-100.00,SSW,194,4.0,7.8,54,0.00,,,-99.99,367.0,HOBO +U30 +Weather +,2013-08-12 14:50:00,
2013-08-12 08:55:00,66.1,49.7,-100.00,South,188,5.1,7.4,55,0.00,,,-99.99,381.0,HOBO +U30 +Weather +,2013-08-12 14:55:00,
2013-08-12 09:00:00,66.6,50.1,-100.00,SSW,192,4.5,8.5,55,0.00,,,-99.99,393.0,HOBO +U30 +Weather +,2013-08-12 15:00:00,
2013-08-12 09:05:00,66.9,50.8,-100.00,SSW,201,4.5,6.7,56,0.00,,,-99.99,407.0,HOBO +U30 +Weather +,2013-08-12 15:05:00,
2013-08-12 09:10:00,67.2,50.9,-100.00,SSW,197,5.6,7.8,55,0.00,,,-99.99,421.0,HOBO +U30 +Weather +,2013-08-12 15:10:00,
2013-08-12 09:15:00,68.6,51.4,-100.00,SSW,204,2.9,6.7,54,0.00,,,-99.99,432.0,HOBO +U30 +Weather +,2013-08-12 15:15:00,
2013-08-12 09:20:00,68.7,51.5,-100.00,SSW,194,3.4,6.7,54,0.00,,,-99.99,444.0,HOBO +U30 +Weather +,2013-08-12 15:20:00,
2013-08-12 09:33:00,68.8,51.8,-100.00,SSW,202,4.5,7.4,54,0.00,,,-99.99,457.0,HOBO +U30 +Weather +,2013-08-12 15:33:00,
2013-08-12 09:35:00,69.2,52.0,-100.00,WSW,241,3.4,6.7,54,0.00,,,-99.99,479.0,HOBO +U30 +Weather +,2013-08-12 15:35:00,
2013-08-12 09:40:00,70.9,52.7,-100.00,SSW,195,2.9,5.6,52,0.00,,,-99.99,489.0,HOBO +U30 +Weather +,2013-08-12 15:40:00,
2013-08-12 09:45:00,71.5,52.7,-100.00,South,191,2.9,5.6,51,0.00,,,-99.99,504.0,HOBO +U30 +Weather +,2013-08-12 15:45:00,
2013-08-12 09:50:00,72.2,53.1,-100.00,SSW,201,1.8,5.6,51,0.00,,,-99.99,516.0,HOBO +U30 +Weather +,2013-08-12 15:50:00,
2013-08-12 09:55:00,71.2,53.5,-100.00,SSW,212,4.0,5.6,53,0.00,,,-99.99,526.0,HOBO +U30 +Weather +,2013-08-12 15:55:00,
2013-08-12 10:00:00,74.0,54.1,-100.00,SSW,199,1.1,4.5,49,0.00,,,-99.99,536.0,HOBO +U30 +Weather +,2013-08-12 16:00:00,
2013-08-12 10:05:00,73.9,54.5,-100.00,SSW,204,2.2,5.1,50,0.00,,,-99.99,549.0,HOBO +U30 +Weather +,2013-08-12 16:05:00,
2013-08-12 10:10:00,74.2,55.1,-100.00,SSW,205,2.9,4.5,51,0.00,,,-99.99,557.0,HOBO +U30 +Weather +,2013-08-12 16:10:00,
2013-08-12 10:15:00,74.0,55.4,-100.00,SW,223,2.9,6.7,52,0.00,,,-99.99,568.0,HOBO +U30 +Weather +,2013-08-12 16:15:00,
2013-08-12 10:20:00,75.4,56.3,-100.00,WSW,239,1.8,4.5,51,0.00,,,-99.99,578.0,HOBO +U30 +Weather +,2013-08-12 16:20:00,
2013-08-12 10:32:00,75.9,56.8,-100.00,SW,234,1.1,4.0,51,0.00,,,-99.99,588.0,HOBO +U30 +Weather +,2013-08-12 16:32:00,
2013-08-12 10:35:00,78.7,57.3,-100.00,WNW,302,0.7,4.0,47,0.00,,,-99.99,608.0,HOBO +U30 +Weather +,2013-08-12 16:35:00,
2013-08-12 10:40:00,78.9,56.7,-100.00,NNE,15,1.8,5.1,46,0.00,,,-99.99,618.0,HOBO +U30 +Weather +,2013-08-12 16:40:00,
2013-08-12 10:45:00,80.2,57.0,-100.00,NNE,13,1.1,3.4,45,0.00,,,-99.99,628.0,HOBO +U30 +Weather +,2013-08-12 16:45:00,
2013-08-12 10:50:00,81.0,56.8,-100.00,North,4,0.0,2.2,43,0.00,,,-99.99,638.0,HOBO +U30 +Weather +,2013-08-12 16:50:00,
2013-08-12 10:55:00,81.9,56.3,-100.00,NNE,27,0.7,2.9,41,0.00,,,-99.99,652.0,HOBO +U30 +Weather +,2013-08-12 16:55:00,
2013-08-12 11:00:00,83.3,56.0,-100.00,NE,49,0.7,2.9,39,0.00,,,-99.99,659.0,HOBO +U30 +Weather +,2013-08-12 17:00:00,
2013-08-12 11:05:00,84.1,55.7,-100.00,North,10,0.7,1.8,37,0.00,,,-99.99,664.0,HOBO +U30 +Weather +,2013-08-12 17:05:00,
2013-08-12 11:10:00,81.6,54.5,-100.00,SSE,153,1.8,4.0,39,0.00,,,-99.99,664.0,HOBO +U30 +Weather +,2013-08-12 17:10:00,
2013-08-12 11:15:00,80.1,53.5,-100.00,SW,227,2.2,4.0,39,0.00,,,-99.99,321.0,HOBO +U30 +Weather +,2013-08-12 17:15:00,
2013-08-12 11:20:00,81.4,52.7,-100.00,SW,223,1.8,5.1,37,0.00,,,-99.99,662.0,HOBO +U30 +Weather +,2013-08-12 17:20:00,
2013-08-12 11:30:00,83.5,53.0,-100.00,SSW,192,1.1,3.4,35,0.00,,,-99.99,676.0,HOBO +U30 +Weather +,2013-08-12 17:30:00,
2013-08-12 11:35:00,85.4,53.1,-100.00,South,184,1.1,4.0,33,0.00,,,-99.99,691.0,HOBO +U30 +Weather +,2013-08-12 17:35:00,
2013-08-12 11:40:00,86.0,52.4,-100.00,South,173,1.8,4.5,31,0.00,,,-99.99,701.0,HOBO +U30 +Weather +,2013-08-12 17:40:00,
2013-08-12 11:45:00,84.1,50.9,-100.00,NNE,20,2.9,6.7,31,0.00,,,-99.99,704.0,HOBO +U30 +Weather +,2013-08-12 17:45:00,
2013-08-12 11:50:00,85.6,49.4,-100.00,NW,323,0.7,4.0,28,0.00,,,-99.99,716.0,HOBO +U30 +Weather +,2013-08-12 17:50:00,
2013-08-12 11:55:00,87.7,50.3,-100.00,SSE,159,0.7,2.2,27,0.00,,,-99.99,723.0,HOBO +U30 +Weather +,2013-08-12 17:55:00,
2013-08-12 12:00:00,85.8,49.2,-100.00,SE,124,1.8,4.0,28,0.00,,,-99.99,727.0,HOBO +U30 +Weather +,2013-08-12 18:00:00,
2013-08-12 12:05:00,86.5,49.8,-100.00,SE,135,1.1,4.5,28,0.00,,,-99.99,724.0,HOBO +U30 +Weather +,2013-08-12 18:05:00,
2013-08-12 12:10:00,84.8,48.8,-100.00,North,355,4.5,9.6,28,0.00,,,-99.99,722.0,HOBO +U30 +Weather +,2013-08-12 18:10:00,
2013-08-12 12:15:00,84.8,49.1,-100.00,NNE,21,4.0,7.8,29,0.00,,,-99.99,732.0,HOBO +U30 +Weather +,2013-08-12 18:15:00,
2013-08-12 12:29:00,83.8,49.1,-100.00,NE,35,4.5,8.5,30,0.00,,,-99.99,726.0,HOBO +U30 +Weather +,2013-08-12 18:29:00,
2013-08-12 12:30:00,85.6,48.4,-100.00,NNW,347,3.4,8.9,27,0.00,,,-99.99,721.0,HOBO +U30 +Weather +,2013-08-12 18:30:00,
2013-08-12 12:35:00,86.4,49.2,-100.00,NNE,14,4.0,8.5,27,0.00,,,-99.99,717.0,HOBO +U30 +Weather +,2013-08-12 18:35:00,
2013-08-12 12:40:00,87.8,49.8,-100.00,NNW,344,2.2,6.7,27,0.00,,,-99.99,728.0,HOBO +U30 +Weather +,2013-08-12 18:40:00,
2013-08-12 12:45:00,85.2,48.0,-100.00,NNE,22,5.1,11.9,27,0.00,,,-99.99,731.0,HOBO +U30 +Weather +,2013-08-12 18:45:00,
2013-08-12 12:50:00,86.8,49.5,-100.00,North,352,2.9,7.8,27,0.00,,,-99.99,731.0,HOBO +U30 +Weather +,2013-08-12 18:50:00,
2013-08-12 12:55:00,87.9,48.7,-100.00,NW,312,2.2,5.1,25,0.00,,,-99.99,737.0,HOBO +U30 +Weather +,2013-08-12 18:55:00,
2013-08-12 13:00:00,86.7,48.5,-100.00,NNE,18,4.0,10.1,26,0.00,,,-99.99,722.0,HOBO +U30 +Weather +,2013-08-12 19:00:00,
2013-08-12 13:05:00,85.5,47.9,-100.00,NNE,20,8.5,12.3,27,0.00,,,-99.99,742.0,HOBO +U30 +Weather +,2013-08-12 19:05:00,
2013-08-12 13:10:00,86.3,49.7,-100.00,NNE,18,4.0,9.6,28,0.00,,,-99.99,742.0,HOBO +U30 +Weather +,2013-08-12 19:10:00,
2013-08-12 13:15:00,85.8,49.8,-100.00,NNE,22,8.5,13.4,28,0.00,,,-99.99,751.0,HOBO +U30 +Weather +,2013-08-12 19:15:00,
2013-08-12 13:27:00,86.6,49.7,-100.00,NNE,22,7.8,11.9,28,0.00,,,-99.99,739.0,HOBO +U30 +Weather +,2013-08-12 19:27:00,
2013-08-12 13:30:00,86.5,50.2,-100.00,NNE,17,6.3,14.1,28,0.00,,,-99.99,751.0,HOBO +U30 +Weather +,2013-08-12 19:30:00,
2013-08-12 13:35:00,85.9,50.4,-100.00,NE,39,8.9,14.1,29,0.00,,,-99.99,756.0,HOBO +U30 +Weather +,2013-08-12 19:35:00,
2013-08-12 13:40:00,87.5,50.8,-100.00,North,11,6.7,13.0,28,0.00,,,-99.99,741.0,HOBO +U30 +Weather +,2013-08-12 19:40:00,
2013-08-12 13:45:00,86.4,52.0,-100.00,North,10,8.5,13.4,30,0.00,,,-99.99,734.0,HOBO +U30 +Weather +,2013-08-12 19:45:00,
2013-08-12 13:50:00,86.0,51.2,-100.00,North,3,8.5,15.9,30,0.00,,,-99.99,737.0,HOBO +U30 +Weather +,2013-08-12 19:50:00,
2013-08-12 13:55:00,86.6,51.1,-100.00,North,4,8.9,13.4,29,0.00,,,-99.99,727.0,HOBO +U30 +Weather +,2013-08-12 19:55:00,
2013-08-12 14:00:00,86.5,51.5,-100.00,NNE,28,10.1,13.4,30,0.00,,,-99.99,734.0,HOBO +U30 +Weather +,2013-08-12 20:00:00,
2013-08-12 14:05:00,86.7,51.3,-100.00,NNE,18,8.5,15.2,29,0.00,,,-99.99,742.0,HOBO +U30 +Weather +,2013-08-12 20:05:00,
2013-08-12 14:10:00,87.3,51.9,-100.00,North,6,8.5,12.3,29,0.00,,,-99.99,746.0,HOBO +U30 +Weather +,2013-08-12 20:10:00,
2013-08-12 14:15:00,87.2,51.3,-100.00,NNE,13,11.2,14.5,29,0.00,,,-99.99,691.0,HOBO +U30 +Weather +,2013-08-12 20:15:00,
2013-08-12 14:26:00,87.4,51.4,-100.00,NNE,14,10.1,14.5,29,0.00,,,-99.99,722.0,HOBO +U30 +Weather +,2013-08-12 20:26:00,
2013-08-12 14:30:00,86.8,51.6,-100.00,NNW,347,9.6,15.9,30,0.00,,,-99.99,723.0,HOBO +U30 +Weather +,2013-08-12 20:30:00,
2013-08-12 14:35:00,88.7,51.4,-100.00,North,6,7.8,12.3,28,0.00,,,-99.99,728.0,HOBO +U30 +Weather +,2013-08-12 20:35:00,
2013-08-12 14:40:00,88.2,51.5,-100.00,NNE,13,9.6,14.1,28,0.00,,,-99.99,732.0,HOBO +U30 +Weather +,2013-08-12 20:40:00,
2013-08-12 14:45:00,88.1,51.4,-100.00,NNE,22,9.6,14.1,28,0.00,,,-99.99,746.0,HOBO +U30 +Weather +,2013-08-12 20:45:00,
2013-08-12 14:50:00,88.8,50.8,-100.00,North,11,10.7,15.9,27,0.00,,,-99.99,723.0,HOBO +U30 +Weather +,2013-08-12 20:50:00,
2013-08-12 14:55:00,88.1,50.9,-100.00,North,11,10.7,14.5,28,0.00,,,-99.99,427.0,HOBO +U30 +Weather +,2013-08-12 20:55:00,
2013-08-12 15:00:00,87.7,51.3,-100.00,NNE,27,11.9,18.6,28,0.00,,,-99.99,339.0,HOBO +U30 +Weather +,2013-08-12 21:00:00,
2013-08-12 15:05:00,88.0,51.2,-100.00,NNE,13,10.1,14.1,28,0.00,,,-99.99,323.0,HOBO +U30 +Weather +,2013-08-12 21:05:00,
2013-08-12 15:10:00,88.1,51.4,-100.00,NNE,14,10.1,14.1,28,0.00,,,-99.99,294.0,HOBO +U30 +Weather +,2013-08-12 21:10:00,
2013-08-12 15:24:00,87.8,51.3,-100.00,NNE,22,10.1,15.2,28,0.00,,,-99.99,348.0,HOBO +U30 +Weather +,2013-08-12 21:24:00,
2013-08-12 15:25:00,87.7,51.3,-100.00,North,11,12.3,17.0,28,0.00,,,-99.99,418.0,HOBO +U30 +Weather +,2013-08-12 21:25:00,
2013-08-12 15:30:00,88.3,51.3,-100.00,NNE,13,11.9,16.3,28,0.00,,,-99.99,487.0,HOBO +U30 +Weather +,2013-08-12 21:30:00,
2013-08-12 15:35:00,88.0,51.4,-100.00,NNE,13,10.1,15.9,28,0.00,,,-99.99,374.0,HOBO +U30 +Weather +,2013-08-12 21:35:00,
2013-08-12 15:40:00,88.4,51.7,-100.00,North,10,11.9,18.1,28,0.00,,,-99.99,558.0,HOBO +U30 +Weather +,2013-08-12 21:40:00,
2013-08-12 15:45:00,89.1,52.1,-100.00,North,10,10.7,17.0,28,0.00,,,-99.99,628.0,HOBO +U30 +Weather +,2013-08-12 21:45:00,
2013-08-12 15:50:00,88.9,52.0,-100.00,North,10,13.0,17.4,28,0.00,,,-99.99,689.0,HOBO +U30 +Weather +,2013-08-12 21:50:00,
2013-08-12 15:55:00,89.5,52.5,-100.00,NNE,14,12.3,18.6,28,0.00,,,-99.99,413.0,HOBO +U30 +Weather +,2013-08-12 21:55:00,
2013-08-12 16:00:00,89.0,53.0,-100.00,NNE,27,12.3,20.8,29,0.00,,,-99.99,518.0,HOBO +U30 +Weather +,2013-08-12 22:00:00,
2013-08-12 16:05:00,89.3,52.8,-100.00,NNE,21,11.2,15.9,28,0.00,,,-99.99,376.0,HOBO +U30 +Weather +,2013-08-12 22:05:00,
2013-08-12 16:10:00,88.7,52.0,-100.00,NNE,32,13.0,19.2,28,0.00,,,-99.99,356.0,HOBO +U30 +Weather +,2013-08-12 22:10:00,
2013-08-12 16:22:00,89.0,51.7,-100.00,NNE,29,11.2,18.6,28,0.00,,,-99.99,266.0,HOBO +U30 +Weather +,2013-08-12 22:22:00,
2013-08-12 16:25:00,88.7,50.7,-100.00,NNE,20,13.0,17.4,27,0.00,,,-99.99,227.0,HOBO +U30 +Weather +,2013-08-12 22:25:00,
2013-08-12 16:30:00,88.5,51.4,-100.00,NNE,20,13.0,17.4,28,0.00,,,-99.99,237.0,HOBO +U30 +Weather +,2013-08-12 22:30:00,
2013-08-12 16:35:00,88.7,50.5,-100.00,NNE,15,11.9,19.7,27,0.00,,,-99.99,248.0,HOBO +U30 +Weather +,2013-08-12 22:35:00,
2013-08-12 16:40:00,89.2,49.3,-100.00,NNE,15,9.6,15.2,25,0.00,,,-99.99,257.0,HOBO +U30 +Weather +,2013-08-12 22:40:00,
2013-08-12 16:45:00,89.0,51.0,-100.00,NNE,28,7.8,11.2,27,0.00,,,-99.99,277.0,HOBO +U30 +Weather +,2013-08-12 22:45:00,
2013-08-12 16:50:00,88.3,51.8,-100.00,NNE,17,11.9,17.0,28,0.00,,,-99.99,334.0,HOBO +U30 +Weather +,2013-08-12 22:50:00,
2013-08-12 16:55:00,89.3,51.0,-100.00,North,11,7.8,11.9,27,0.00,,,-99.99,636.0,HOBO +U30 +Weather +,2013-08-12 22:55:00,
2013-08-12 17:00:00,89.5,52.7,-100.00,North,11,7.8,12.3,28,0.00,,,-99.99,298.0,HOBO +U30 +Weather +,2013-08-12 23:00:00,
2013-08-12 17:05:00,88.8,50.6,-100.00,NNE,21,10.1,14.1,27,0.00,,,-99.99,262.0,HOBO +U30 +Weather +,2013-08-12 23:05:00,
2013-08-12 17:10:00,88.9,51.5,-100.00,NE,37,8.5,12.3,27,0.00,,,-99.99,218.0,HOBO +U30 +Weather +,2013-08-12 23:10:00,
2013-08-12 17:22:00,88.8,50.8,-100.00,NE,46,6.7,12.3,27,0.00,,,-99.99,204.0,HOBO +U30 +Weather +,2013-08-12 23:22:00,
2013-08-12 17:25:00,88.7,51.0,-100.00,NNE,18,8.9,14.1,27,0.00,,,-99.99,196.0,HOBO +U30 +Weather +,2013-08-12 23:25:00,
2013-08-12 17:30:00,88.9,50.2,-100.00,NNE,27,9.6,12.3,26,0.00,,,-99.99,194.0,HOBO +U30 +Weather +,2013-08-12 23:30:00,
2013-08-12 17:35:00,88.3,51.2,-100.00,NE,38,8.5,12.3,28,0.00,,,-99.99,201.0,HOBO +U30 +Weather +,2013-08-12 23:35:00,
2013-08-12 17:40:00,88.6,50.3,-100.00,NNE,25,9.6,12.3,26,0.00,,,-99.99,212.0,HOBO +U30 +Weather +,2013-08-12 23:40:00,
2013-08-12 17:45:00,88.9,50.9,-100.00,NNE,27,7.4,10.7,27,0.00,,,-99.99,206.0,HOBO +U30 +Weather +,2013-08-12 23:45:00,
2013-08-12 17:50:00,88.6,50.5,-100.00,NNE,24,7.4,10.7,27,0.00,,,-99.99,196.0,HOBO +U30 +Weather +,2013-08-12 23:50:00,
2013-08-12 17:55:00,88.3,51.4,-100.00,North,11,8.9,12.3,28,0.00,,,-99.99,208.0,HOBO +U30 +Weather +,2013-08-12 23:55:00,
2013-08-12 18:00:00,88.3,51.1,-100.00,NNE,18,7.4,11.9,28,0.00,,,-99.99,193.0,HOBO +U30 +Weather +,2013-08-13 00:00:00,
2013-08-12 18:05:00,88.5,51.7,-100.00,NNE,17,7.8,12.3,28,0.00,,,-99.99,293.0,HOBO +U30 +Weather +,2013-08-13 00:05:00,
2013-08-12 18:19:00,89.0,51.7,-100.00,NNE,31,5.6,9.6,28,0.00,,,-99.99,221.0,HOBO +U30 +Weather +,2013-08-13 00:19:00,
2013-08-12 18:20:00,87.5,53.2,-100.00,NE,39,8.5,14.1,31,0.00,,,-99.99,173.0,HOBO +U30 +Weather +,2013-08-13 00:20:00,
2013-08-12 18:25:00,87.5,54.0,-100.00,NNE,29,8.5,12.3,32,0.00,,,-99.99,147.0,HOBO +U30 +Weather +,2013-08-13 00:25:00,
2013-08-12 18:30:00,87.9,52.9,-100.00,NNE,15,7.8,11.2,30,0.00,,,-99.99,137.0,HOBO +U30 +Weather +,2013-08-13 00:30:00,
2013-08-12 18:35:00,87.4,53.6,-100.00,NNE,18,8.9,13.0,31,0.00,,,-99.99,129.0,HOBO +U30 +Weather +,2013-08-13 00:35:00,
2013-08-12 18:40:00,87.2,54.5,-100.00,NNE,13,7.8,11.9,32,0.00,,,-99.99,123.0,HOBO +U30 +Weather +,2013-08-13 00:40:00,
2013-08-12 18:45:00,87.5,53.7,-100.00,North,7,8.9,13.4,31,0.00,,,-99.99,134.0,HOBO +U30 +Weather +,2013-08-13 00:45:00,
2013-08-12 18:50:00,87.8,55.0,-100.00,North,6,7.4,11.2,32,0.00,,,-99.99,216.0,HOBO +U30 +Weather +,2013-08-13 00:50:00,
2013-08-12 18:55:00,87.6,54.8,-100.00,NNE,14,11.9,18.1,32,0.00,,,-99.99,228.0,HOBO +U30 +Weather +,2013-08-13 00:55:00,
2013-08-12 19:00:00,87.4,55.3,-100.00,NNE,15,10.1,14.5,33,0.00,,,-99.99,179.0,HOBO +U30 +Weather +,2013-08-13 01:00:00,
2013-08-12 19:05:00,87.3,55.8,-100.00,NNE,17,10.1,14.5,34,0.00,,,-99.99,206.0,HOBO +U30 +Weather +,2013-08-13 01:05:00,
2013-08-12 19:17:00,86.4,56.0,-100.00,NNE,32,10.7,16.3,35,0.00,,,-99.99,158.0,HOBO +U30 +Weather +,2013-08-13 01:17:00,
2013-08-12 19:20:00,85.8,55.7,-100.00,NE,35,10.1,13.4,35,0.00,,,-99.99,142.0,HOBO +U30 +Weather +,2013-08-13 01:20:00,
2013-08-12 19:25:00,85.8,55.3,-100.00,NE,35,9.6,14.1,35,0.00,,,-99.99,87.0,HOBO +U30 +Weather +,2013-08-13 01:25:00,
2013-08-12 19:30:00,85.8,54.7,-100.00,NE,37,8.9,12.3,34,0.00,,,-99.99,58.0,HOBO +U30 +Weather +,2013-08-13 01:30:00,
2013-08-12 19:35:00,85.6,54.2,-100.00,NNE,25,8.9,14.1,34,0.00,,,-99.99,48.0,HOBO +U30 +Weather +,2013-08-13 01:35:00,
2013-08-12 19:40:00,85.4,53.7,-100.00,NNE,20,10.7,15.2,33,0.00,,,-99.99,39.0,HOBO +U30 +Weather +,2013-08-13 01:40:00,
2013-08-12 19:45:00,84.9,53.8,-100.00,NNE,13,13.4,20.8,34,0.00,,,-99.99,31.0,HOBO +U30 +Weather +,2013-08-13 01:45:00,
2013-08-12 19:50:00,77.0,49.3,-100.00,North,351,22.6,33.3,37,0.00,,,-99.99,26.0,HOBO +U30 +Weather +,2013-08-13 01:50:00,
2013-08-12 19:55:00,76.5,49.3,-100.00,North,355,20.4,30.9,38,0.00,,,-99.99,21.0,HOBO +U30 +Weather +,2013-08-13 01:55:00,
2013-08-12 20:00:00,76.1,49.8,-100.00,North,351,17.0,26.4,39,0.00,,,-99.99,16.0,HOBO +U30 +Weather +,2013-08-13 02:00:00,
2013-08-12 20:05:00,75.5,50.3,-100.00,North,351,18.1,26.4,41,0.00,,,-99.99,11.0,HOBO +U30 +Weather +,2013-08-13 02:05:00,
2013-08-12 20:16:00,75.3,51.0,-100.00,North,351,13.4,24.2,42,0.00,,,-99.99,7.0,HOBO +U30 +Weather +,2013-08-13 02:16:00,
2013-08-12 20:20:00,74.6,51.5,-100.00,North,3,13.4,19.7,44,0.00,,,-99.99,2.0,HOBO +U30 +Weather +,2013-08-13 02:20:00,
2013-08-12 20:25:00,74.5,51.8,-100.00,NNE,17,14.1,21.9,44,0.00,,,-99.99,1.0,HOBO +U30 +Weather +,2013-08-13 02:25:00,
2013-08-12 20:30:00,74.2,52.0,-100.00,NNE,13,14.1,21.5,45,0.00,,,-99.99,1.0,HOBO +U30 +Weather +,2013-08-13 02:30:00,
2013-08-12 20:35:00,74.1,51.9,-100.00,North,8,12.3,16.3,45,0.00,,,-99.99,1.0,HOBO +U30 +Weather +,2013-08-13 02:35:00,
2013-08-12 20:40:00,74.4,51.9,-100.00,NNE,15,9.6,13.4,45,0.00,,,-99.99,1.0,HOBO +U30 +Weather +,2013-08-13 02:40:00,
2013-08-12 20:45:00,74.4,51.7,-100.00,NNE,22,9.6,15.2,45,0.00,,,-99.99,1.0,HOBO +U30 +Weather +,2013-08-13 02:45:00,
2013-08-12 20:50:00,74.2,51.9,-100.00,NNE,15,8.9,13.4,45,0.00,,,-99.99,1.0,HOBO +U30 +Weather +,2013-08-13 02:50:00,
2013-08-12 20:55:00,74.0,51.8,-100.00,NNE,13,7.8,11.2,45,0.00,,,-99.99,1.0,HOBO +U30 +Weather +,2013-08-13 02:55:00,
2013-08-12 21:00:00,73.9,51.9,-100.00,NNE,14,7.8,11.9,46,0.00,,,-99.99,1.0,HOBO +U30 +Weather +,2013-08-13 03:00:00,
2013-08-12 21:14:00,73.8,51.8,-100.00,NNE,14,6.7,10.1,46,0.00,,,-99.99,1.0,HOBO +U30 +Weather +,2013-08-13 03:14:00,
2013-08-12 21:15:00,73.6,51.8,-100.00,North,6,7.4,10.7,46,0.00,,,-99.99,1.0,HOBO +U30 +Weather +,2013-08-13 03:15:00,
2013-08-12 21:20:00,73.6,51.7,-100.00,North,4,8.9,13.0,46,0.00,,,-99.99,1.0,HOBO +U30 +Weather +,2013-08-13 03:20:00,
2013-08-12 21:25:00,73.7,51.7,-100.00,North,4,10.1,14.5,46,0.00,,,-99.99,1.0,HOBO +U30 +Weather +,2013-08-13 03:25:00,
2013-08-12 21:30:00,74.2,52.2,-100.00,North,10,13.0,20.8,46,0.00,,,-99.99,1.0,HOBO +U30 +Weather +,2013-08-13 03:30:00,
2013-08-12 21:35:00,73.6,52.3,-100.00,North,0,11.9,19.7,47,0.00,,,-99.99,1.0,HOBO +U30 +Weather +,2013-08-13 03:35:00,
2013-08-12 21:40:00,73.2,52.1,-100.00,NNW,340,4.5,11.2,47,0.00,,,-99.99,1.0,HOBO +U30 +Weather +,2013-08-13 03:40:00,
2013-08-12 21:45:00,73.8,51.4,-100.00,NW,326,6.7,18.1,45,0.00,,,-99.99,1.0,HOBO +U30 +Weather +,2013-08-13 03:45:00,
2013-08-12 21:50:00,74.3,51.8,-100.00,North,6,8.5,14.1,45,0.00,,,-99.99,1.0,HOBO +U30 +Weather +,2013-08-13 03:50:00,
2013-08-12 21:55:00,74.3,52.4,-100.00,North,3,6.7,13.0,46,0.00,,,-99.99,1.0,HOBO +U30 +Weather +,2013-08-13 03:55:00,
2013-08-12 22:00:00,73.5,52.4,-100.00,NNW,333,5.1,11.2,47,0.00,,,-99.99,1.0,HOBO +U30 +Weather +,2013-08-13 04:00:00,
2013-08-12 22:12:00,74.0,51.9,-100.00,NNW,347,10.7,18.1,46,0.00,,,-99.99,1.0,HOBO +U30 +Weather +,2013-08-13 04:12:00,
2013-08-12 22:15:00,74.9,50.3,-100.00,NNE,15,15.9,24.8,42,0.00,,,-99.99,1.0,HOBO +U30 +Weather +,2013-08-13 04:15:00,
2013-08-12 22:20:00,75.1,49.3,-100.00,NNE,13,18.6,24.8,40,0.00,,,-99.99,1.0,HOBO +U30 +Weather +,2013-08-13 04:20:00,
2013-08-12 22:25:00,75.0,49.8,-100.00,NNE,21,15.2,22.6,41,0.00,,,-99.99,1.0,HOBO +U30 +Weather +,2013-08-13 04:25:00,
2013-08-12 22:30:00,74.6,48.9,-100.00,NNE,31,12.3,20.8,40,0.00,,,-99.99,1.0,HOBO +U30 +Weather +,2013-08-13 04:30:00,
2013-08-12 22:35:00,74.6,48.0,-100.00,NNE,15,16.3,25.9,38,0.00,,,-99.99,1.0,HOBO +U30 +Weather +,2013-08-13 04:35:00,
2013-08-12 22:40:00,74.0,47.9,-100.00,North,8,14.5,23.7,39,0.00,,,-99.99,1.0,HOBO +U30 +Weather +,2013-08-13 04:40:00,
2013-08-12 22:45:00,73.5,48.4,-100.00,North,7,17.0,25.3,41,0.00,,,-99.99,1.0,HOBO +U30 +Weather +,2013-08-13 04:45:00,
2013-08-12 22:50:00,73.1,48.7,-100.00,NNE,13,13.0,27.1,42,0.00,,,-99.99,1.0,HOBO +U30 +Weather +,2013-08-13 04:50:00,
2013-08-12 22:55:00,72.6,48.9,-100.00,NNE,15,15.2,25.9,43,0.00,,,-99.99,1.0,HOBO +U30 +Weather +,2013-08-13 04:55:00,
2013-08-12 23:00:00,72.5,49.0,-100.00,North,10,9.6,17.0,43,0.00,,,-99.99,1.0,HOBO +U30 +Weather +,2013-08-13 05:00:00,
2013-08-12 23:05:00,72.6,49.0,-100.00,North,10,7.8,11.9,43,0.00,,,-99.99,1.0,HOBO +U30 +Weather +,2013-08-13 05:05:00,
2013-08-12 23:10:00,72.6,49.3,-100.00,NNE,20,6.7,11.2,43,0.00,,,-99.99,1.0,HOBO +U30 +Weather +,2013-08-13 05:10:00,
2013-08-12 23:15:00,72.0,50.1,-100.00,NE,42,8.9,14.1,46,0.00,,,-99.99,1.0,HOBO +U30 +Weather +,2013-08-13 05:15:00,
2013-08-12 23:20:00,71.5,50.4,-100.00,NE,35,7.8,12.3,47,0.00,,,-99.99,1.0,HOBO +U30 +Weather +,2013-08-13 05:20:00,
2013-08-12 23:25:00,71.4,50.4,-100.00,NNE,29,6.7,10.7,47,0.00,,,-99.99,1.0,HOBO +U30 +Weather +,2013-08-13 05:25:00,
2013-08-12 23:30:00,71.2,50.3,-100.00,NNE,27,8.5,11.2,47,0.00,,,-99.99,1.0,HOBO +U30 +Weather +,2013-08-13 05:30:00,
2013-08-12 23:35:00,71.1,50.4,-100.00,NNE,22,7.4,11.9,47,0.00,,,-99.99,1.0,HOBO +U30 +Weather +,2013-08-13 05:35:00,
2013-08-12 23:40:00,70.8,50.7,-100.00,NNE,21,6.7,10.7,49,0.00,,,-99.99,1.0,HOBO +U30 +Weather +,2013-08-13 05:40:00,
2013-08-12 23:45:00,70.4,50.9,-100.00,NNE,14,7.8,13.0,49,0.00,,,-99.99,1.0,HOBO +U30 +Weather +,2013-08-13 05:45:00,
2013-08-12 23:50:00,69.5,51.7,-100.00,NNE,20,8.5,11.9,52,0.00,,,-99.99,1.0,HOBO +U30 +Weather +,2013-08-13 05:50:00,
2013-08-12 23:55:00,69.0,52.4,-100.00,NNE,28,7.8,11.9,55,0.00,,,-99.99,1.0,HOBO +U30 +Weather +,2013-08-13 05:55:00,